D/T METAR WX W/DIR W/SPE G/SPE TEMP DEWP
19/03/19 20:50 EGGW 192050Z AUTO 22005KT 9999 SCT031 BKN046 09/06 Q1029 SW (220°) 5.8mph 9°C 6°C
19/03/19 20:20 EGGW 192020Z AUTO 22005KT 9999 BKN030 09/06 Q1028 SW (220°) 5.8mph 9°C 6°C
19/03/19 19:50 EGGW 191950Z AUTO 22007KT 9999 OVC029 10/07 Q1028 SW (220°) 8.1mph 10°C 7°C
19/03/19 19:20 EGGW 191920Z AUTO 23007KT 9999 BKN028 10/07 Q1028 SW (230°) 8.1mph 10°C 7°C
19/03/19 18:50 EGGW 191850Z AUTO 23006KT 9999 FEW030 10/07 Q1028 SW (230°) 6.9mph 10°C 7°C
19/03/19 18:20 EGGW 191820Z AUTO 22006KT 9999 FEW025 BKN034 10/07 Q1028 SW (220°) 6.9mph 10°C 7°C
19/03/19 17:50 EGGW 191750Z AUTO 23005KT 9999 SCT021 BKN030 OVC040 11/08 Q1027 SW (230°) 5.8mph 11°C 8°C
19/03/19 17:20 EGGW 191720Z AUTO 21006KT 9999 BKN021 11/08 Q1027 SSW (210°) 6.9mph 11°C 8°C
19/03/19 16:50 EGGW 191650Z AUTO 21008KT 9999 SCT022 BKN027 BKN033 11/08 Q1027 SSW (210°) 9.2mph 11°C 8°C
19/03/19 16:20 EGGW 191620Z AUTO 22007KT 9999 OVC027 11/07 Q1027 SW (220°) 8.1mph 11°C 7°C
19/03/19 15:50 EGGW 191550Z AUTO 23009KT 9999 BKN022 OVC034 11/07 Q1027 SW (230°) 10.4mph 11°C 7°C
19/03/19 15:20 EGGW 191520Z AUTO 23008KT 9999 SCT023 BKN037 OVC047 12/07 Q1026 SW (230°) 9.2mph 12°C 7°C
19/03/19 14:50 EGGW 191450Z AUTO 25009KT 9999 SCT025 OVC035 12/07 Q1026 WSW (250°) 10.4mph 12°C 7°C
19/03/19 14:20 EGGW 191420Z AUTO 25009KT 9999 FEW025 BKN038 OVC046 12/07 Q1026 WSW (250°) 10.4mph 12°C 7°C
19/03/19 13:50 EGGW 191350Z AUTO 24009KT 9999 FEW021 OVC043 12/08 Q1026 WSW (240°) 10.4mph 12°C 8°C
19/03/19 13:20 EGGW 191320Z AUTO 24008KT 200V270 9999 SCT024 BKN028 BKN037 12/07 Q1027 WSW (240°) 9.2mph 12°C 7°C
19/03/19 12:50 EGGW 191250Z 23007KT 9999 BKN023 BKN029 BKN033 12/07 Q1027 SW (230°) 8.1mph 12°C 7°C
19/03/19 12:20 EGGW 191220Z AUTO 25006KT 220V290 9999 SCT020 SCT025 BKN044 12/07 Q1027 WSW (250°) 6.9mph 12°C 7°C
19/03/19 11:50 EGGW 191150Z AUTO 25007KT 9999 FEW018 SCT028 BKN034 12/07 Q1027 WSW (250°) 8.1mph 12°C 7°C
19/03/19 11:20 EGGW 191120Z AUTO 24005KT 190V280 9999 BKN013 BKN037 11/08 Q1027 WSW (240°) 5.8mph 11°C 8°C
19/03/19 10:50 EGGW 191050Z AUTO 21006KT 9999 SCT009 BKN013 OVC040 11/08 Q1027 SSW (210°) 6.9mph 11°C 8°C
19/03/19 10:20 EGGW 191020Z AUTO 22004KT 160V240 9999 FEW007 OVC038 10/08 Q1027 SW (220°) 4.6mph 10°C 8°C
19/03/19 09:50 EGGW 190950Z AUTO 22005KT 160V240 8000 OVC039 09/08 Q1026 SW (220°) 5.8mph 9°C 8°C
19/03/19 09:20 EGGW 190920Z AUTO 22005KT 8000 BKN006 BKN016 OVC035 08/08 Q1026 SW (220°) 5.8mph 8°C 8°C
19/03/19 08:50 EGGW 190850Z AUTO 24005KT 6000 BKN003 OVC036 08/08 Q1026 WSW (240°) 5.8mph 8°C 8°C
19/03/19 08:20 EGGW 190820Z 23004KT 5000 BR BKN004 OVC030 08/07 Q1026 BR SW (230°) 4.6mph 8°C 7°C
19/03/19 07:50 EGGW 190750Z 21004KT 4100 BR BKN003 OVC030 07/07 Q1025 BR SSW (210°) 4.6mph 7°C 7°C
19/03/19 07:20 EGGW 190720Z AUTO 22005KT 2800 BR BKN002 OVC030 07/06 Q1025 BR SW (220°) 5.8mph 7°C 6°C
19/03/19 06:50 EGGW 190650Z AUTO 20004KT 3300 BR SCT004 BKN011 BKN019 06/06 Q1025 BR SSW (200°) 4.6mph 6°C 6°C
19/03/19 06:20 EGGW 190620Z AUTO 20003KT 4400 BR OVC011 06/06 Q1025 BR SSW (200°) 3.5mph 6°C 6°C
19/03/19 05:50 EGGW 190550Z AUTO 21003KT 4900 BR OVC011 06/06 Q1025 BR SSW (210°) 3.5mph 6°C 6°C
19/03/19 05:20 EGGW 190520Z AUTO 20003KT 5000 BR OVC011 06/06 Q1025 BR SSW (200°) 3.5mph 6°C 6°C
19/03/19 04:50 EGGW 190450Z AUTO 21003KT 4100 HZ OVC011 07/06 Q1024 REDZ HZ SSW (210°) 3.5mph 7°C 6°C
19/03/19 04:20 EGGW 190420Z AUTO 22003KT 7000 OVC013 07/06 Q1024 SW (220°) 3.5mph 7°C 6°C
19/03/19 03:50 EGGW 190350Z AUTO 23003KT 8000 BKN013 OVC024 07/06 Q1024 SW (230°) 3.5mph 7°C 6°C
19/03/19 02:50 EGGW 190250Z AUTO 25005KT 8000 NCD 06/05 Q1024 WSW (250°) 5.8mph 6°C 5°C
19/03/19 02:20 EGGW 190220Z AUTO 26007KT 8000 FEW040 06/05 Q1024 W (260°) 8.1mph 6°C 5°C
19/03/19 01:50 EGGW 190150Z AUTO 25007KT 9000 NCD 06/05 Q1024 WSW (250°) 8.1mph 6°C 5°C
19/03/19 01:20 EGGW 190120Z AUTO 25006KT 9999 SCT033 OVC048 06/05 Q1024 WSW (250°) 6.9mph 6°C 5°C
19/03/19 00:50 EGGW 190050Z AUTO 22003KT 9999 FEW031 BKN047 05/04 Q1024 SW (220°) 3.5mph 5°C 4°C
19/03/19 00:20 EGGW 190020Z AUTO 22004KT 9999 BKN048 05/04 Q1024 SW (220°) 4.6mph 5°C 4°C
18/03/19 23:50 EGGW 182350Z AUTO 21004KT 9999 FEW049 06/04 Q1023 SSW (210°) 4.6mph 6°C 4°C
18/03/19 23:20 EGGW 182320Z AUTO 22004KT 9999 BKN047 05/04 Q1023 SW (220°) 4.6mph 5°C 4°C
18/03/19 22:50 EGGW 182250Z AUTO 21005KT 9999 BKN041 06/04 Q1023 SSW (210°) 5.8mph 6°C 4°C
18/03/19 22:20 EGGW 182220Z AUTO 20004KT 9999 BKN039 BKN048 05/04 Q1023 SSW (200°) 4.6mph 5°C 4°C
18/03/19 21:50 EGGW 182150Z AUTO 20004KT 9999 BKN047 05/04 Q1023 SSW (200°) 4.6mph 5°C 4°C
18/03/19 21:20 EGGW 182120Z AUTO 21003KT 9999 BKN041 05/04 Q1023 SSW (210°) 3.5mph 5°C 4°C
18/03/19 20:50 EGGW 182050Z AUTO 21004KT 9999 BKN039 05/03 Q1023 SSW (210°) 4.6mph 5°C 3°C
18/03/19 20:20 EGGW 182020Z 20004KT CAVOK 05/03 Q1023 SSW (200°) 4.6mph 5°C 3°C
18/03/19 19:50 EGGW 181950Z AUTO 20003KT 9999 NCD 05/03 Q1023 SSW (200°) 3.5mph 5°C 3°C
18/03/19 19:20 EGGW 181920Z AUTO 21005KT 9999 BKN023 05/03 Q1022 SSW (210°) 5.8mph 5°C 3°C
18/03/19 18:50 EGGW 181850Z AUTO 20003KT 9999 NCD 06/03 Q1022 SSW (200°) 3.5mph 6°C 3°C
18/03/19 17:50 EGGW 181750Z 24006KT 9999 FEW039CB 06/03 Q1021 WSW (240°) 6.9mph 6°C 3°C
18/03/19 17:20 EGGW 181720Z 25008KT 9999 FEW040CB 08/04 Q1021 WSW (250°) 9.2mph 8°C 4°C
18/03/19 16:20 EGGW 181620Z AUTO 25009KT 9999 FEW037 08/04 Q1021 WSW (250°) 10.4mph 8°C 4°C
18/03/19 15:50 EGGW 181550Z AUTO 25010KT 9999 SCT028 BKN040 09/04 Q1020 WSW (250°) 11.5mph 9°C 4°C
18/03/19 14:50 EGGW 181450Z AUTO 27009KT 240V300 9999 BKN034 09/02 Q1020 W (270°) 10.4mph 9°C 2°C
18/03/19 14:20 EGGW 181420Z AUTO 28012KT 9999 NCD 10/02 Q1020 W (280°) 13.8mph 10°C 2°C
18/03/19 13:50 EGGW 181350Z AUTO 28011KT 9999 BKN034 10/02 Q1020 W (280°) 12.7mph 10°C 2°C
18/03/19 13:20 EGGW 181320Z AUTO 27014KT 9999 FEW031 SCT039 10/02 Q1020 W (270°) 16.1mph 10°C 2°C
18/03/19 12:50 EGGW 181250Z AUTO 30012KT 9999 BKN032 BKN039 10/02 Q1020 WNW (300°) 13.8mph 10°C 2°C
18/03/19 12:20 EGGW 181220Z AUTO 28011KT 9999 SCT034 10/02 Q1020 W (280°) 12.7mph 10°C 2°C
18/03/19 11:50 EGGW 181150Z AUTO 28011KT 250V310 9999 SCT028 BKN038 10/04 Q1020 W (280°) 12.7mph 10°C 4°C
18/03/19 11:20 EGGW 181120Z AUTO 29010KT 9999 BKN020 09/04 Q1020 WNW (290°) 11.5mph 9°C 4°C
18/03/19 10:50 EGGW 181050Z AUTO 28009KT 250V320 9999 BKN018 BKN024 08/04 Q1020 W (280°) 10.4mph 8°C 4°C
18/03/19 09:50 EGGW 180950Z AUTO 28010KT 9999 NCD 07/03 Q1020 W (280°) 11.5mph 7°C 3°C
18/03/19 09:20 EGGW 180920Z AUTO 28012KT 9999 NCD 06/03 Q1019 W (280°) 13.8mph 6°C 3°C
18/03/19 08:50 EGGW 180850Z AUTO 28011KT 9999 NCD 06/03 Q1019 W (280°) 12.7mph 6°C 3°C
18/03/19 08:20 EGGW 180820Z AUTO 28010KT 9999 NCD 06/03 Q1019 W (280°) 11.5mph 6°C 3°C
18/03/19 07:50 EGGW 180750Z AUTO 27010KT 9999 NCD 04/02 Q1019 W (270°) 11.5mph 4°C 2°C
18/03/19 07:20 EGGW 180720Z AUTO 28012KT 9999 NCD 04/02 Q1018 W (280°) 13.8mph 4°C 2°C
18/03/19 06:50 EGGW 180650Z AUTO 28009KT 9999 NCD 04/01 Q1018 W (280°) 10.4mph 4°C 1°C
18/03/19 06:20 EGGW 180620Z AUTO 28011KT 9999 NCD 04/01 Q1018 W (280°) 12.7mph 4°C 1°C
18/03/19 05:50 EGGW 180550Z AUTO 28010KT 9999 NCD 03/01 Q1017 W (280°) 11.5mph 3°C 1°C
18/03/19 05:20 EGGW 180520Z AUTO 28010KT 9999 NCD 04/01 Q1017 W (280°) 11.5mph 4°C 1°C
18/03/19 04:50 EGGW 180450Z AUTO 28011KT 9999 NCD 04/01 Q1017 W (280°) 12.7mph 4°C 1°C
18/03/19 04:20 EGGW 180420Z AUTO 28010KT 9999 NCD 04/02 Q1016 W (280°) 11.5mph 4°C 2°C
18/03/19 03:50 EGGW 180350Z AUTO 28011KT 9999 SCT018 BKN042 04/02 Q1016 W (280°) 12.7mph 4°C 2°C
18/03/19 02:50 EGGW 180250Z AUTO 27009KT 9999 BKN020 OVC039 04/02 Q1016 W (270°) 10.4mph 4°C 2°C
18/03/19 02:20 EGGW 180220Z AUTO 27011KT 9999 OVC038 04/02 Q1015 W (270°) 12.7mph 4°C 2°C
18/03/19 01:50 EGGW 180150Z AUTO 26010KT 9999 SCT019 BKN037 04/02 Q1015 W (260°) 11.5mph 4°C 2°C
18/03/19 00:50 EGGW 180050Z AUTO 28009KT 9999 NCD 04/02 Q1014 W (280°) 10.4mph 4°C 2°C
18/03/19 00:20 EGGW 180020Z AUTO 28010KT 9999 NCD 05/03 Q1014 W (280°) 11.5mph 5°C 3°C
17/03/19 23:50 EGGW 172350Z AUTO 29011KT 9999 FEW019 05/03 Q1013 WNW (290°) 12.7mph 5°C 3°C
17/03/19 23:20 EGGW 172320Z AUTO 29013KT 9999 FEW022 SCT026 05/03 Q1013 WNW (290°) 15.0mph 5°C 3°C
17/03/19 22:50 EGGW 172250Z AUTO 29012KT 9999 SCT019 OVC049 05/03 Q1013 WNW (290°) 13.8mph 5°C 3°C
17/03/19 22:20 EGGW 172220Z AUTO 29014KT 9999 BKN047 05/03 Q1012 WNW (290°) 16.1mph 5°C 3°C
17/03/19 21:50 EGGW 172150Z AUTO 29013KT 9999 NCD 05/02 Q1012 WNW (290°) 15.0mph 5°C 2°C
17/03/19 21:20 EGGW 172120Z 28011KT 9999 FEW028 SCT033 05/02 Q1011 W (280°) 12.7mph 5°C 2°C
17/03/19 20:50 EGGW 172050Z 28013KT 9999 SCT040 05/02 Q1011 W (280°) 15.0mph 5°C 2°C
17/03/19 20:20 EGGW 172020Z 28012KT 9999 SCT040 05/02 Q1010 W (280°) 13.8mph 5°C 2°C
17/03/19 19:20 EGGW 171920Z AUTO 28012KT 9999 SCT044 05/02 Q1009 W (280°) 13.8mph 5°C 2°C
17/03/19 18:50 EGGW 171850Z AUTO 27013KT 9999 SCT047 05/02 Q1009 W (270°) 15.0mph 5°C 2°C
17/03/19 18:20 EGGW 171820Z 26011KT 9999 BKN044 06/01 Q1008 W (260°) 12.7mph 6°C 1°C
17/03/19 17:50 EGGW 171750Z AUTO 28012KT 9999 BKN043 07/01 Q1008 W (280°) 13.8mph 7°C 1°C
17/03/19 17:20 EGGW 171720Z AUTO 28014KT 9999 NCD 07/00 Q1007 W (280°) 16.1mph 7°C 0°C
17/03/19 16:50 EGGW 171650Z AUTO 26012KT 9999 SCT043 07/02 Q1007 W (260°) 13.8mph 7°C 2°C
17/03/19 16:20 EGGW 171620Z AUTO 27009KT 9999 SCT046 06/02 Q1007 W (270°) 10.4mph 6°C 2°C
17/03/19 15:50 EGGW 171550Z AUTO 27010KT 9999 -RA SCT022/// SCT048/// //////CB 05/02 Q1007 -RA W (270°) 11.5mph 5°C 2°C
17/03/19 14:50 EGGW 171450Z AUTO 28016G26KT 250V320 9999 FEW034/// SCT045/// //////CB 04/01 Q1006 RESHGR W (280°) 18.4mph 29.9mph 4°C 1°C
17/03/19 14:20 EGGW 171420Z 27018KT 240V310 4000 SHGR FEW026CB BKN036 07/00 Q1006 RESHGR SHGR W (270°) 20.7mph 7°C 0°C
17/03/19 13:20 EGGW 171320Z AUTO 27018KT 9999 FEW040 SCT047 08/M00 Q1005 W (270°) 20.7mph 8°C 0°C
17/03/19 12:50 EGGW 171250Z AUTO 26018KT 9999 BKN038 08/00 Q1005 W (260°) 20.7mph 8°C 0°C
17/03/19 11:50 EGGW 171150Z AUTO 26018KT 9999 SCT032 BKN040 08/01 Q1004 W (260°) 20.7mph 8°C 1°C
17/03/19 10:50 EGGW 171050Z AUTO 28017KT 9999 FEW034 OVC043 07/00 Q1004 W (280°) 19.6mph 7°C 0°C
17/03/19 10:20 EGGW 171020Z AUTO 28019KT 9999 FEW028 BKN033 07/01 Q1004 W (280°) 21.9mph 7°C 1°C
17/03/19 09:50 EGGW 170950Z AUTO 28018KT 9999 SCT023 BKN028 06/02 Q1003 W (280°) 20.7mph 6°C 2°C
17/03/19 09:20 EGGW 170920Z AUTO 27017KT 9999 SCT023 06/02 Q1003 W (270°) 19.6mph 6°C 2°C
17/03/19 08:50 EGGW 170850Z AUTO 27016KT 9999 FEW022 05/02 Q1002 W (270°) 18.4mph 5°C 2°C
17/03/19 07:50 EGGW 170750Z AUTO 26014KT 9999 NCD 04/02 Q1001 W (260°) 16.1mph 4°C 2°C
17/03/19 07:20 EGGW 170720Z AUTO 26012KT 9999 NCD 04/02 Q1001 W (260°) 13.8mph 4°C 2°C
17/03/19 06:50 EGGW 170650Z AUTO 27013KT 9999 NCD 03/02 Q1000 W (270°) 15.0mph 3°C 2°C
17/03/19 05:50 EGGW 170550Z AUTO 27013KT 9999 NCD 03/02 Q0999 W (270°) 15.0mph 3°C 2°C
17/03/19 05:20 EGGW 170520Z AUTO 26016KT 9999 NCD 03/02 Q0999 W (260°) 18.4mph 3°C 2°C
17/03/19 04:50 EGGW 170450Z AUTO 26015KT 9999 NCD 03/02 Q0998 W (260°) 17.3mph 3°C 2°C
17/03/19 04:20 EGGW 170420Z AUTO 27015KT 9999 NCD 03/02 Q0998 W (270°) 17.3mph 3°C 2°C
17/03/19 03:50 EGGW 170350Z AUTO 27016KT 9999 SCT024 04/02 Q0997 W (270°) 18.4mph 4°C 2°C
17/03/19 02:50 EGGW 170250Z AUTO 27013KT 9999 FEW028 04/03 Q0997 W (270°) 15.0mph 4°C 3°C
17/03/19 02:20 EGGW 170220Z AUTO 27017KT 9999 FEW019 BKN027 05/03 Q0996 W (270°) 19.6mph 5°C 3°C
17/03/19 01:50 EGGW 170150Z AUTO 26015KT 9999 //////TCU 05/04 Q0996 W (260°) 17.3mph 5°C 4°C
17/03/19 01:20 EGGW 170120Z AUTO 26017KT 9999 SCT045 05/04 Q0996 W (260°) 19.6mph 5°C 4°C
17/03/19 00:20 EGGW 170020Z AUTO 26012KT 9999 -RA FEW013 SCT025 BKN039 06/05 Q0996 -RA W (260°) 13.8mph 6°C 5°C
16/03/19 23:50 EGGW 162350Z AUTO 27015KT 9999 SCT041 06/05 Q0995 W (270°) 17.3mph 6°C 5°C
16/03/19 22:50 EGGW 162250Z AUTO 27012KT 9999 -RA FEW011/// SCT028/// BKN032/// //////CB 06/05 Q0995 -RA W (270°) 13.8mph 6°C 5°C
16/03/19 22:20 EGGW 162220Z AUTO 24016KT 9999 -RA BKN010/// OVC040/// //////TCU 07/06 Q0994 -RA WSW (240°) 18.4mph 7°C 6°C
16/03/19 21:50 EGGW 162150Z AUTO 24018KT 9000 -RA BKN012 07/06 Q0994 -RA WSW (240°) 20.7mph 7°C 6°C
16/03/19 21:20 EGGW 162120Z AUTO 25021KT 9999 -RA FEW018/// SCT030/// //////CB 08/06 Q0994 -RA WSW (250°) 24.2mph 8°C 6°C
16/03/19 20:50 EGGW 162050Z AUTO 23021G32KT 9999 -RA SCT011/// BKN017/// BKN048/// //////CB 09/08 Q0994 -RA SW (230°) 24.2mph 36.8mph 9°C 8°C
16/03/19 20:20 EGGW 162020Z AUTO 21017G27KT 9999 -RA BKN009/// OVC021/// //////CB 09/08 Q0993 -RA SSW (210°) 19.6mph 31.1mph 9°C 8°C
16/03/19 19:50 EGGW 161950Z AUTO 21018KT 6000 -RA BKN007 OVC015 09/08 Q0994 -RA SSW (210°) 20.7mph 9°C 8°C
16/03/19 19:20 EGGW 161920Z AUTO 21019G31KT 4300 -RA OVC007 09/08 Q0994 RERA -RA SSW (210°) 21.9mph 35.7mph 9°C 8°C
16/03/19 18:20 EGGW 161820Z AUTO 21021G31KT 9999 BKN012 OVC017 09/07 Q0994 SSW (210°) 24.2mph 35.7mph 9°C 7°C
16/03/19 17:50 EGGW 161750Z 22024G37KT 6000 -RADZ OVC015 10/07 Q0995 -RA -DZ SW (220°) 27.6mph 42.6mph 10°C 7°C
16/03/19 17:20 EGGW 161720Z AUTO 22025G37KT 9999 OVC017 10/07 Q0995 SW (220°) 28.8mph 42.6mph 10°C 7°C
16/03/19 16:50 EGGW 161650Z AUTO 22024G36KT 9999 OVC019 10/06 Q0996 SW (220°) 27.6mph 41.4mph 10°C 6°C
16/03/19 16:20 EGGW 161620Z AUTO 22025G39KT 9999 OVC020 10/06 Q0996 SW (220°) 28.8mph 44.9mph 10°C 6°C
16/03/19 15:50 EGGW 161550Z AUTO 22026G41KT 9999 OVC021 11/06 Q0996 SW (220°) 29.9mph 47.2mph 11°C 6°C
16/03/19 15:20 EGGW 161520Z AUTO 22026G43KT 9999 BKN023 OVC035 11/06 Q0996 SW (220°) 29.9mph 49.5mph 11°C 6°C
16/03/19 14:50 EGGW 161450Z AUTO 22027G42KT 9999 BKN023 OVC036 11/06 Q0997 SW (220°) 31.1mph 48.3mph 11°C 6°C
16/03/19 13:50 EGGW 161350Z AUTO 22021G34KT 9999 BKN026 OVC030 12/06 Q0998 SW (220°) 24.2mph 39.1mph 12°C 6°C
16/03/19 13:20 EGGW 161320Z 22023G33KT 9999 BKN026 BKN030 OVC037 12/06 Q0999 SW (220°) 26.5mph 38.0mph 12°C 6°C
16/03/19 12:20 EGGW 161220Z AUTO 22018KT 9999 BKN022 OVC028 11/07 Q1000 SW (220°) 20.7mph 11°C 7°C
16/03/19 11:50 EGGW 161150Z 23023G34KT 9999 BKN026 11/06 Q1000 SW (230°) 26.5mph 39.1mph 11°C 6°C
16/03/19 11:20 EGGW 161120Z 23022G33KT 9999 BKN020 OVC028 11/07 Q1001 SW (230°) 25.3mph 38.0mph 11°C 7°C